Tonawanda, New York
Current Conditions -  °F | °C
As of 9:53 AM on Friday 31 Oct 2014 (Local Time) from KIAG Reporting Station
Light Rain Light Rain  
Wind Chill: 43°   Ceiling: 3800
Heat Index: 43°   Visibility: 8mi
Dew Point: 41°   Wind: 3mph
Humidity: 93%   Direction: 110°ESE
Pressure: 29.94"   Gusts: NA
Location:  43.02°N, 78.89°W
Report Text: KIAG 311353Z 11003KT 8SM -RA SCT027 BKN038 OVC080 06/05 A2994 RMK AO2 SLP148 P0000 T00610050
Loading
Personal Weather Stations






























Interactive Weather Map
Tropical Storm Tracking
New forecast layout! Learn more

10-Day Weather Forecast

Advertisements
Track Severe Weather on mobile